sensor_id;sensor_type;location;lat;lon;timestamp;noise_LAeq;noise_LA_min;noise_LA_max;noise_LA01;noise_LA95
58197;Laerm;43999;51.660;5.616;2023-07-24T00:00:35;49.61;48.34;51.70;;
58197;Laerm;43999;51.660;5.616;2023-07-24T00:03:03;49.60;48.32;51.43;;
58197;Laerm;43999;51.660;5.616;2023-07-24T00:05:30;49.59;48.31;51.50;;
58197;Laerm;43999;51.660;5.616;2023-07-24T00:07:58;49.61;48.40;51.22;;
58197;Laerm;43999;51.660;5.616;2023-07-24T00:10:25;49.60;48.18;51.61;;
58197;Laerm;43999;51.660;5.616;2023-07-24T00:12:52;49.62;48.28;51.23;;
58197;Laerm;43999;51.660;5.616;2023-07-24T00:15:20;49.61;48.26;51.48;;
58197;Laerm;43999;51.660;5.616;2023-07-24T00:17:47;49.61;48.42;51.57;;
58197;Laerm;43999;51.660;5.616;2023-07-24T00:20:15;49.59;48.34;51.27;;
58197;Laerm;43999;51.660;5.616;2023-07-24T00:22:42;49.60;48.16;51.20;;
58197;Laerm;43999;51.660;5.616;2023-07-24T00:25:10;49.60;48.34;51.33;;
58197;Laerm;43999;51.660;5.616;2023-07-24T00:27:37;49.61;48.43;51.06;;
58197;Laerm;43999;51.660;5.616;2023-07-24T00:30:06;49.61;47.95;51.42;;
58197;Laerm;43999;51.660;5.616;2023-07-24T00:32:34;49.60;48.32;51.26;;
58197;Laerm;43999;51.660;5.616;2023-07-24T00:35:02;49.62;48.34;51.40;;
58197;Laerm;43999;51.660;5.616;2023-07-24T00:37:29;49.60;48.34;51.33;;
58197;Laerm;43999;51.660;5.616;2023-07-24T00:39:56;49.60;48.29;51.36;;
58197;Laerm;43999;51.660;5.616;2023-07-24T00:42:24;49.59;48.23;51.23;;
58197;Laerm;43999;51.660;5.616;2023-07-24T00:44:51;49.60;48.31;51.19;;
58197;Laerm;43999;51.660;5.616;2023-07-24T00:47:18;49.60;48.37;51.11;;
58197;Laerm;43999;51.660;5.616;2023-07-24T00:49:46;49.60;48.43;51.40;;
58197;Laerm;43999;51.660;5.616;2023-07-24T00:52:15;49.60;48.23;51.13;;
58197;Laerm;43999;51.660;5.616;2023-07-24T00:54:45;49.59;48.26;51.13;;
58197;Laerm;43999;51.660;5.616;2023-07-24T00:57:14;49.60;48.13;51.32;;
58197;Laerm;43999;51.660;5.616;2023-07-24T00:59:42;49.61;48.21;51.37;;
58197;Laerm;43999;51.660;5.616;2023-07-24T01:02:09;49.59;48.32;51.51;;
58197;Laerm;43999;51.660;5.616;2023-07-24T01:04:39;49.59;48.42;51.20;;
58197;Laerm;43999;51.660;5.616;2023-07-24T01:07:07;49.59;48.40;51.06;;
58197;Laerm;43999;51.660;5.616;2023-07-24T01:09:34;49.60;48.32;51.26;;
58197;Laerm;43999;51.660;5.616;2023-07-24T01:12:33;49.59;48.26;51.50;;
58197;Laerm;43999;51.660;5.616;2023-07-24T01:15:33;49.60;48.34;51.21;;
58197;Laerm;43999;51.660;5.616;2023-07-24T01:18:08;49.60;48.34;51.18;;
58197;Laerm;43999;51.660;5.616;2023-07-24T01:20:51;49.59;48.29;51.07;;
58197;Laerm;43999;51.660;5.616;2023-07-24T01:26:24;49.60;48.23;51.67;;
58197;Laerm;43999;51.660;5.616;2023-07-24T01:28:52;49.60;48.34;51.29;;
58197;Laerm;43999;51.660;5.616;2023-07-24T01:31:20;49.60;48.49;51.30;;
58197;Laerm;43999;51.660;5.616;2023-07-24T01:33:47;49.59;48.36;51.40;;
58197;Laerm;43999;51.660;5.616;2023-07-24T01:36:18;49.59;48.24;51.13;;
58197;Laerm;43999;51.660;5.616;2023-07-24T01:38:49;49.58;48.37;51.26;;
58197;Laerm;43999;51.660;5.616;2023-07-24T01:41:18;49.59;48.26;51.47;;
58197;Laerm;43999;51.660;5.616;2023-07-24T01:43:46;49.59;48.05;51.26;;
58197;Laerm;43999;51.660;5.616;2023-07-24T01:46:14;49.59;48.32;51.23;;
58197;Laerm;43999;51.660;5.616;2023-07-24T01:48:43;49.58;48.29;51.30;;
58197;Laerm;43999;51.660;5.616;2023-07-24T01:51:10;49.59;48.10;51.39;;
58197;Laerm;43999;51.660;5.616;2023-07-24T01:53:38;49.58;48.29;51.12;;
58197;Laerm;43999;51.660;5.616;2023-07-24T01:56:05;49.57;48.29;51.13;;
58197;Laerm;43999;51.660;5.616;2023-07-24T01:58:32;49.60;48.12;51.20;;
58197;Laerm;43999;51.660;5.616;2023-07-24T02:01:00;49.59;48.28;50.99;;
58197;Laerm;43999;51.660;5.616;2023-07-24T02:03:27;49.58;48.12;51.19;;
58197;Laerm;43999;51.660;5.616;2023-07-24T02:05:55;49.58;48.37;51.39;;
58197;Laerm;43999;51.660;5.616;2023-07-24T02:08:22;49.58;48.37;51.37;;
58197;Laerm;43999;51.660;5.616;2023-07-24T02:10:50;49.58;48.46;51.28;;
58197;Laerm;43999;51.660;5.616;2023-07-24T02:13:18;49.59;48.26;51.40;;
58197;Laerm;43999;51.660;5.616;2023-07-24T02:15:49;49.58;48.16;51.13;;
58197;Laerm;43999;51.660;5.616;2023-07-24T02:18:17;49.58;48.21;51.37;;
58197;Laerm;43999;51.660;5.616;2023-07-24T02:20:51;49.57;48.29;51.36;;
58197;Laerm;43999;51.660;5.616;2023-07-24T02:23:18;49.59;48.32;51.35;;
58197;Laerm;43999;51.660;5.616;2023-07-24T02:25:46;49.60;48.31;51.25;;
58197;Laerm;43999;51.660;5.616;2023-07-24T02:28:17;49.57;48.38;51.30;;
58197;Laerm;43999;51.660;5.616;2023-07-24T02:30:47;49.58;48.39;51.22;;
58197;Laerm;43999;51.660;5.616;2023-07-24T02:33:15;49.58;48.34;51.13;;
58197;Laerm;43999;51.660;5.616;2023-07-24T02:35:42;49.58;48.29;51.07;;
58197;Laerm;43999;51.660;5.616;2023-07-24T02:38:10;49.58;48.37;50.99;;
58197;Laerm;43999;51.660;5.616;2023-07-24T02:40:41;49.58;48.32;51.45;;
58197;Laerm;43999;51.660;5.616;2023-07-24T02:43:08;49.58;48.21;51.37;;
58197;Laerm;43999;51.660;5.616;2023-07-24T02:45:38;49.57;48.23;51.47;;
58197;Laerm;43999;51.660;5.616;2023-07-24T02:48:06;49.58;48.08;51.39;;
58197;Laerm;43999;51.660;5.616;2023-07-24T02:50:34;49.58;48.45;51.16;;
58197;Laerm;43999;51.660;5.616;2023-07-24T02:53:02;49.57;48.32;51.19;;
58197;Laerm;43999;51.660;5.616;2023-07-24T02:55:29;49.57;48.37;51.09;;
58197;Laerm;43999;51.660;5.616;2023-07-24T02:57:57;49.58;48.34;51.14;;
58197;Laerm;43999;51.660;5.616;2023-07-24T03:00:25;49.59;48.21;51.37;;
58197;Laerm;43999;51.660;5.616;2023-07-24T03:02:53;49.58;48.26;51.19;;
58197;Laerm;43999;51.660;5.616;2023-07-24T03:05:20;49.57;48.29;51.54;;
58197;Laerm;43999;51.660;5.616;2023-07-24T03:07:48;49.57;48.20;51.22;;
58197;Laerm;43999;51.660;5.616;2023-07-24T03:10:15;49.57;48.36;51.98;;
58197;Laerm;43999;51.660;5.616;2023-07-24T03:12:43;49.57;48.08;51.51;;
58197;Laerm;43999;51.660;5.616;2023-07-24T03:15:11;49.57;48.36;51.13;;
58197;Laerm;43999;51.660;5.616;2023-07-24T03:17:39;49.56;48.28;51.03;;
58197;Laerm;43999;51.660;5.616;2023-07-24T03:20:19;49.58;48.00;51.23;;
58197;Laerm;43999;51.660;5.616;2023-07-24T03:22:46;49.57;48.31;51.14;;
58197;Laerm;43999;51.660;5.616;2023-07-24T03:25:14;49.57;48.20;51.10;;
58197;Laerm;43999;51.660;5.616;2023-07-24T03:27:41;49.56;48.36;51.34;;
58197;Laerm;43999;51.660;5.616;2023-07-24T03:30:09;49.56;48.19;51.48;;
58197;Laerm;43999;51.660;5.616;2023-07-24T03:32:37;49.57;48.21;51.26;;
58197;Laerm;43999;51.660;5.616;2023-07-24T03:35:07;49.57;48.31;51.23;;
58197;Laerm;43999;51.660;5.616;2023-07-24T03:37:35;49.56;48.21;51.23;;
58197;Laerm;43999;51.660;5.616;2023-07-24T03:40:06;49.54;48.20;51.66;;
58197;Laerm;43999;51.660;5.616;2023-07-24T03:42:33;49.53;47.67;51.34;;
58197;Laerm;43999;51.660;5.616;2023-07-24T03:45:01;49.54;48.31;51.09;;
58197;Laerm;43999;51.660;5.616;2023-07-24T03:47:29;49.52;48.28;51.08;;
58197;Laerm;43999;51.660;5.616;2023-07-24T03:49:56;49.53;48.16;51.49;;
58197;Laerm;43999;51.660;5.616;2023-07-24T03:52:23;49.53;48.28;51.39;;
58197;Laerm;43999;51.660;5.616;2023-07-24T03:54:54;49.53;48.28;51.44;;
58197;Laerm;43999;51.660;5.616;2023-07-24T03:57:21;49.53;48.28;51.75;;
58197;Laerm;43999;51.660;5.616;2023-07-24T03:59:49;49.52;48.34;50.98;;
58197;Laerm;43999;51.660;5.616;2023-07-24T04:02:16;49.52;47.95;51.14;;
58197;Laerm;43999;51.660;5.616;2023-07-24T04:04:43;49.53;48.31;51.23;;
58197;Laerm;43999;51.660;5.616;2023-07-24T04:07:11;49.53;48.34;51.05;;
58197;Laerm;43999;51.660;5.616;2023-07-24T04:09:38;49.53;48.32;51.02;;
58197;Laerm;43999;51.660;5.616;2023-07-24T04:12:06;49.54;48.32;51.29;;
58197;Laerm;43999;51.660;5.616;2023-07-24T04:14:33;49.53;48.26;51.50;;
58197;Laerm;43999;51.660;5.616;2023-07-24T04:17:01;49.56;48.39;51.17;;
58197;Laerm;43999;51.660;5.616;2023-07-24T04:19:28;49.53;48.28;51.07;;
58197;Laerm;43999;51.660;5.616;2023-07-24T04:21:56;49.55;48.34;51.16;;
58197;Laerm;43999;51.660;5.616;2023-07-24T04:24:23;49.55;48.03;51.04;;
58197;Laerm;43999;51.660;5.616;2023-07-24T04:26:50;49.54;48.36;51.07;;
58197;Laerm;43999;51.660;5.616;2023-07-24T04:29:18;49.53;48.16;51.49;;
58197;Laerm;43999;51.660;5.616;2023-07-24T04:31:45;49.55;48.00;51.42;;
58197;Laerm;43999;51.660;5.616;2023-07-24T04:34:12;49.54;48.40;51.36;;
58197;Laerm;43999;51.660;5.616;2023-07-24T04:36:40;49.54;48.25;51.20;;
58197;Laerm;43999;51.660;5.616;2023-07-24T04:39:07;49.55;48.15;51.37;;
58197;Laerm;43999;51.660;5.616;2023-07-24T04:41:34;49.55;48.18;51.02;;
58197;Laerm;43999;51.660;5.616;2023-07-24T04:44:02;49.53;48.31;51.26;;
58197;Laerm;43999;51.660;5.616;2023-07-24T04:46:29;49.54;48.42;51.26;;
58197;Laerm;43999;51.660;5.616;2023-07-24T04:48:57;49.53;48.18;51.04;;
58197;Laerm;43999;51.660;5.616;2023-07-24T04:51:25;49.54;48.13;51.30;;
58197;Laerm;43999;51.660;5.616;2023-07-24T04:53:54;49.53;48.32;51.09;;
58197;Laerm;43999;51.660;5.616;2023-07-24T04:56:21;49.52;48.25;50.98;;
58197;Laerm;43999;51.660;5.616;2023-07-24T04:58:48;49.53;48.32;51.50;;
58197;Laerm;43999;51.660;5.616;2023-07-24T05:01:16;49.54;48.08;51.16;;
58197;Laerm;43999;51.660;5.616;2023-07-24T05:03:43;49.53;48.12;50.99;;
58197;Laerm;43999;51.660;5.616;2023-07-24T05:06:10;49.53;48.32;51.12;;
58197;Laerm;43999;51.660;5.616;2023-07-24T05:08:38;49.53;48.22;51.53;;
58197;Laerm;43999;51.660;5.616;2023-07-24T05:11:05;49.54;48.32;51.93;;
58197;Laerm;43999;51.660;5.616;2023-07-24T05:13:33;49.53;48.29;51.30;;
58197;Laerm;43999;51.660;5.616;2023-07-24T05:16:00;49.53;48.31;51.67;;
58197;Laerm;43999;51.660;5.616;2023-07-24T05:18:28;49.53;48.13;51.08;;
58197;Laerm;43999;51.660;5.616;2023-07-24T05:20:55;49.54;48.18;51.48;;
58197;Laerm;43999;51.660;5.616;2023-07-24T05:23:23;49.53;48.25;51.19;;
58197;Laerm;43999;51.660;5.616;2023-07-24T05:26:03;49.53;47.83;51.32;;
58197;Laerm;43999;51.660;5.616;2023-07-24T05:28:33;49.55;48.25;51.28;;
58197;Laerm;43999;51.660;5.616;2023-07-24T05:31:05;49.54;48.26;51.14;;
58197;Laerm;43999;51.660;5.616;2023-07-24T05:33:34;49.55;48.36;50.99;;
58197;Laerm;43999;51.660;5.616;2023-07-24T05:36:03;49.53;48.21;51.30;;
58197;Laerm;43999;51.660;5.616;2023-07-24T05:38:31;49.52;48.39;51.17;;
58197;Laerm;43999;51.660;5.616;2023-07-24T05:41:02;49.53;48.23;51.28;;
58197;Laerm;43999;51.660;5.616;2023-07-24T05:43:31;49.54;48.21;51.26;;
58197;Laerm;43999;51.660;5.616;2023-07-24T05:45:59;49.53;48.34;51.21;;
58197;Laerm;43999;51.660;5.616;2023-07-24T05:48:27;49.53;48.21;51.37;;
58197;Laerm;43999;51.660;5.616;2023-07-24T05:50:54;49.52;48.15;51.51;;
58197;Laerm;43999;51.660;5.616;2023-07-24T05:53:22;49.52;48.02;51.02;;
58197;Laerm;43999;51.660;5.616;2023-07-24T05:56:01;49.53;48.10;51.74;;
58197;Laerm;43999;51.660;5.616;2023-07-24T05:58:29;49.54;48.28;51.23;;
58197;Laerm;43999;51.660;5.616;2023-07-24T06:00:57;49.53;48.28;51.03;;
58197;Laerm;43999;51.660;5.616;2023-07-24T06:03:24;49.54;48.34;51.18;;
58197;Laerm;43999;51.660;5.616;2023-07-24T06:05:54;49.52;48.21;50.97;;
58197;Laerm;43999;51.660;5.616;2023-07-24T06:08:22;49.52;48.15;51.21;;
58197;Laerm;43999;51.660;5.616;2023-07-24T06:10:51;49.52;48.13;51.20;;
58197;Laerm;43999;51.660;5.616;2023-07-24T06:13:19;49.53;48.18;51.37;;
58197;Laerm;43999;51.660;5.616;2023-07-24T06:15:49;49.51;48.20;51.17;;
58197;Laerm;43999;51.660;5.616;2023-07-24T06:18:18;49.53;48.34;51.16;;
58197;Laerm;43999;51.660;5.616;2023-07-24T06:20:47;49.53;48.18;51.53;;
58197;Laerm;43999;51.660;5.616;2023-07-24T06:23:17;49.52;48.34;51.07;;
58197;Laerm;43999;51.660;5.616;2023-07-24T06:25:46;49.52;48.31;51.21;;
58197;Laerm;43999;51.660;5.616;2023-07-24T06:28:15;49.55;48.15;51.03;;
58197;Laerm;43999;51.660;5.616;2023-07-24T06:30:43;49.55;48.13;51.26;;
58197;Laerm;43999;51.660;5.616;2023-07-24T06:33:11;49.55;48.46;51.50;;
58197;Laerm;43999;51.660;5.616;2023-07-24T06:35:39;49.55;48.07;51.71;;
58197;Laerm;43999;51.660;5.616;2023-07-24T06:38:06;49.56;48.31;51.27;;
58197;Laerm;43999;51.660;5.616;2023-07-24T06:40:36;49.56;48.23;51.21;;
58197;Laerm;43999;51.660;5.616;2023-07-24T06:43:03;49.56;48.05;51.15;;
58197;Laerm;43999;51.660;5.616;2023-07-24T06:45:30;49.57;48.39;51.17;;
58197;Laerm;43999;51.660;5.616;2023-07-24T06:47:59;49.55;48.37;51.62;;
58197;Laerm;43999;51.660;5.616;2023-07-24T06:50:27;49.57;48.28;51.17;;
58197;Laerm;43999;51.660;5.616;2023-07-24T06:52:54;49.57;48.40;51.13;;
58197;Laerm;43999;51.660;5.616;2023-07-24T06:55:23;49.57;48.40;51.44;;
58197;Laerm;43999;51.660;5.616;2023-07-24T06:57:54;49.58;48.22;51.37;;
58197;Laerm;43999;51.660;5.616;2023-07-24T07:00:21;49.57;48.32;51.13;;
58197;Laerm;43999;51.660;5.616;2023-07-24T07:02:49;49.56;48.16;51.33;;
58197;Laerm;43999;51.660;5.616;2023-07-24T07:05:17;49.58;48.18;51.29;;
58197;Laerm;43999;51.660;5.616;2023-07-24T07:07:44;49.56;48.39;51.29;;
58197;Laerm;43999;51.660;5.616;2023-07-24T07:10:11;49.57;48.23;51.15;;
58197;Laerm;43999;51.660;5.616;2023-07-24T07:12:39;49.57;48.29;51.26;;
58197;Laerm;43999;51.660;5.616;2023-07-24T07:15:07;49.58;48.36;51.16;;
58197;Laerm;43999;51.660;5.616;2023-07-24T07:17:35;49.58;47.96;51.17;;
58197;Laerm;43999;51.660;5.616;2023-07-24T07:20:03;49.57;48.25;51.31;;
58197;Laerm;43999;51.660;5.616;2023-07-24T07:22:30;49.57;48.18;51.22;;
58197;Laerm;43999;51.660;5.616;2023-07-24T07:24:58;49.56;48.08;51.25;;
58197;Laerm;43999;51.660;5.616;2023-07-24T07:27:25;49.58;48.42;51.16;;
58197;Laerm;43999;51.660;5.616;2023-07-24T07:29:52;49.57;48.25;51.15;;
58197;Laerm;43999;51.660;5.616;2023-07-24T07:32:20;49.58;48.23;51.13;;
58197;Laerm;43999;51.660;5.616;2023-07-24T07:34:48;49.56;48.31;51.13;;
58197;Laerm;43999;51.660;5.616;2023-07-24T07:37:15;49.57;48.37;51.27;;
58197;Laerm;43999;51.660;5.616;2023-07-24T07:39:43;49.57;48.03;51.18;;
58197;Laerm;43999;51.660;5.616;2023-07-24T07:42:10;49.57;48.15;51.53;;
58197;Laerm;43999;51.660;5.616;2023-07-24T07:44:46;49.55;48.42;51.21;;
58197;Laerm;43999;51.660;5.616;2023-07-24T07:47:13;49.55;48.25;51.16;;
58197;Laerm;43999;51.660;5.616;2023-07-24T07:49:41;49.55;48.36;51.15;;
58197;Laerm;43999;51.660;5.616;2023-07-24T07:52:09;49.56;48.20;51.22;;
58197;Laerm;43999;51.660;5.616;2023-07-24T07:54:36;49.56;48.07;51.04;;
58197;Laerm;43999;51.660;5.616;2023-07-24T07:57:04;49.55;48.32;51.50;;
58197;Laerm;43999;51.660;5.616;2023-07-24T07:59:32;49.56;48.42;51.18;;
58197;Laerm;43999;51.660;5.616;2023-07-24T08:02:00;49.56;48.32;51.60;;
58197;Laerm;43999;51.660;5.616;2023-07-24T08:04:28;49.55;48.34;51.10;;
58197;Laerm;43999;51.660;5.616;2023-07-24T08:06:55;49.55;48.21;50.99;;
58197;Laerm;43999;51.660;5.616;2023-07-24T08:09:23;49.54;48.12;51.40;;
58197;Laerm;43999;51.660;5.616;2023-07-24T08:11:51;49.54;48.18;51.29;;
58197;Laerm;43999;51.660;5.616;2023-07-24T08:14:19;49.57;48.16;51.25;;
58197;Laerm;43999;51.660;5.616;2023-07-24T08:16:50;49.57;48.29;51.46;;
58197;Laerm;43999;51.660;5.616;2023-07-24T08:19:18;49.58;48.12;51.64;;
58197;Laerm;43999;51.660;5.616;2023-07-24T08:21:47;49.56;48.15;51.53;;
58197;Laerm;43999;51.660;5.616;2023-07-24T08:24:14;49.58;48.21;51.66;;
58197;Laerm;43999;51.660;5.616;2023-07-24T08:26:42;49.56;48.28;51.14;;
58197;Laerm;43999;51.660;5.616;2023-07-24T08:29:09;49.57;48.26;51.10;;
58197;Laerm;43999;51.660;5.616;2023-07-24T08:31:37;49.58;48.23;51.32;;
58197;Laerm;43999;51.660;5.616;2023-07-24T08:34:04;49.58;48.18;51.20;;
58197;Laerm;43999;51.660;5.616;2023-07-24T08:36:32;49.57;48.45;51.22;;
58197;Laerm;43999;51.660;5.616;2023-07-24T08:38:59;49.58;48.37;51.50;;
58197;Laerm;43999;51.660;5.616;2023-07-24T08:41:26;49.60;48.42;51.26;;
58197;Laerm;43999;51.660;5.616;2023-07-24T08:43:54;49.60;48.36;51.25;;
58197;Laerm;43999;51.660;5.616;2023-07-24T08:46:22;49.60;48.25;51.35;;
58197;Laerm;43999;51.660;5.616;2023-07-24T08:48:54;49.61;48.18;51.13;;
58197;Laerm;43999;51.660;5.616;2023-07-24T08:51:22;49.62;48.31;51.50;;
58197;Laerm;43999;51.660;5.616;2023-07-24T08:53:50;49.63;48.39;51.31;;
58197;Laerm;43999;51.660;5.616;2023-07-24T08:56:18;49.61;48.26;51.54;;
58197;Laerm;43999;51.660;5.616;2023-07-24T08:58:45;49.61;48.36;51.65;;
58197;Laerm;43999;51.660;5.616;2023-07-24T09:01:13;49.61;48.39;51.25;;
58197;Laerm;43999;51.660;5.616;2023-07-24T09:03:40;49.59;48.36;51.06;;
58197;Laerm;43999;51.660;5.616;2023-07-24T09:06:08;49.60;48.28;51.37;;
58197;Laerm;43999;51.660;5.616;2023-07-24T09:08:42;49.60;48.21;51.65;;
58197;Laerm;43999;51.660;5.616;2023-07-24T09:11:13;49.58;48.26;51.25;;
58197;Laerm;43999;51.660;5.616;2023-07-24T09:13:43;49.60;48.37;51.03;;
58197;Laerm;43999;51.660;5.616;2023-07-24T09:16:25;49.57;48.29;51.37;;
58197;Laerm;43999;51.660;5.616;2023-07-24T09:18:54;49.57;48.36;50.98;;
58197;Laerm;43999;51.660;5.616;2023-07-24T09:21:32;49.57;48.20;51.18;;
58197;Laerm;43999;51.660;5.616;2023-07-24T09:24:14;49.60;48.28;51.58;;
58197;Laerm;43999;51.660;5.616;2023-07-24T09:26:53;49.59;47.98;51.70;;
58197;Laerm;43999;51.660;5.616;2023-07-24T09:29:32;49.62;48.42;51.19;;
58197;Laerm;43999;51.660;5.616;2023-07-24T09:32:01;49.62;48.41;51.37;;
58197;Laerm;43999;51.660;5.616;2023-07-24T09:34:28;49.63;48.29;51.26;;
58197;Laerm;43999;51.660;5.616;2023-07-24T09:36:56;49.65;48.15;51.28;;
58197;Laerm;43999;51.660;5.616;2023-07-24T09:39:26;49.65;48.49;51.20;;
58197;Laerm;43999;51.660;5.616;2023-07-24T09:42:06;49.66;48.42;51.22;;
58197;Laerm;43999;51.660;5.616;2023-07-24T09:44:35;49.64;48.39;51.15;;
58197;Laerm;43999;51.660;5.616;2023-07-24T09:47:02;49.64;48.34;51.42;;
58197;Laerm;43999;51.660;5.616;2023-07-24T09:49:52;49.64;48.34;51.33;;
58197;Laerm;43999;51.660;5.616;2023-07-24T09:52:27;49.63;48.35;51.24;;
58197;Laerm;43999;51.660;5.616;2023-07-24T09:55:23;49.62;48.25;51.14;;
58197;Laerm;43999;51.660;5.616;2023-07-24T09:57:54;49.63;48.32;51.37;;
58197;Laerm;43999;51.660;5.616;2023-07-24T10:00:23;49.63;48.23;51.22;;
58197;Laerm;43999;51.660;5.616;2023-07-24T10:02:52;49.62;48.20;51.27;;
58197;Laerm;43999;51.660;5.616;2023-07-24T10:05:20;49.63;48.40;51.34;;
58197;Laerm;43999;51.660;5.616;2023-07-24T10:07:49;49.62;48.32;51.37;;
58197;Laerm;43999;51.660;5.616;2023-07-24T10:10:18;49.60;48.21;51.27;;
58197;Laerm;43999;51.660;5.616;2023-07-24T10:12:45;49.62;48.46;51.45;;
58197;Laerm;43999;51.660;5.616;2023-07-24T10:15:14;49.63;48.23;51.39;;
58197;Laerm;43999;51.660;5.616;2023-07-24T10:17:42;49.61;48.34;51.07;;
58197;Laerm;43999;51.660;5.616;2023-07-24T10:20:12;49.61;48.45;51.30;;
58197;Laerm;43999;51.660;5.616;2023-07-24T10:22:43;49.63;48.13;51.17;;
58197;Laerm;43999;51.660;5.616;2023-07-24T10:25:11;49.61;48.25;51.21;;
58197;Laerm;43999;51.660;5.616;2023-07-24T10:27:44;49.60;48.26;51.32;;
58197;Laerm;43999;51.660;5.616;2023-07-24T10:30:13;49.62;48.48;51.25;;
58197;Laerm;43999;51.660;5.616;2023-07-24T10:33:18;49.61;48.23;51.50;;
58197;Laerm;43999;51.660;5.616;2023-07-24T10:36:02;49.62;48.25;51.30;;
58197;Laerm;43999;51.660;5.616;2023-07-24T10:38:37;49.60;48.16;51.43;;
58197;Laerm;43999;51.660;5.616;2023-07-24T10:41:09;49.62;48.43;51.31;;
58197;Laerm;43999;51.660;5.616;2023-07-24T10:43:52;49.60;48.42;51.09;;
58197;Laerm;43999;51.660;5.616;2023-07-24T10:46:40;49.62;48.54;51.21;;
58197;Laerm;43999;51.660;5.616;2023-07-24T10:49:09;49.60;48.39;51.24;;
58197;Laerm;43999;51.660;5.616;2023-07-24T10:51:36;49.60;48.43;51.04;;
58197;Laerm;43999;51.660;5.616;2023-07-24T10:54:07;49.61;48.26;51.38;;
58197;Laerm;43999;51.660;5.616;2023-07-24T10:56:36;49.62;48.23;51.23;;
58197;Laerm;43999;51.660;5.616;2023-07-24T10:59:05;49.62;48.25;51.23;;
58197;Laerm;43999;51.660;5.616;2023-07-24T11:01:33;49.63;48.45;51.22;;
58197;Laerm;43999;51.660;5.616;2023-07-24T11:04:02;49.62;48.28;51.49;;
58197;Laerm;43999;51.660;5.616;2023-07-24T11:06:30;49.64;48.32;51.37;;
58197;Laerm;43999;51.660;5.616;2023-07-24T11:08:59;49.64;48.39;51.55;;
58197;Laerm;43999;51.660;5.616;2023-07-24T11:11:33;49.65;48.40;51.17;;
58197;Laerm;43999;51.660;5.616;2023-07-24T11:14:03;49.64;48.46;51.23;;
58197;Laerm;43999;51.660;5.616;2023-07-24T11:16:31;49.65;48.13;51.22;;
58197;Laerm;43999;51.660;5.616;2023-07-24T11:19:01;49.66;48.29;51.66;;
58197;Laerm;43999;51.660;5.616;2023-07-24T11:21:28;49.63;48.48;50.89;;
58197;Laerm;43999;51.660;5.616;2023-07-24T11:23:57;49.64;48.40;51.43;;
58197;Laerm;43999;51.660;5.616;2023-07-24T11:26:26;49.64;48.15;51.37;;
58197;Laerm;43999;51.660;5.616;2023-07-24T11:28:55;49.63;48.40;51.22;;
58197;Laerm;43999;51.660;5.616;2023-07-24T11:31:22;49.64;48.43;51.26;;
58197;Laerm;43999;51.660;5.616;2023-07-24T11:33:52;49.65;48.16;50.99;;
58197;Laerm;43999;51.660;5.616;2023-07-24T11:36:21;49.67;48.37;51.15;;
58197;Laerm;43999;51.660;5.616;2023-07-24T11:38:49;49.64;48.46;51.22;;
58197;Laerm;43999;51.660;5.616;2023-07-24T11:41:17;49.67;48.49;51.39;;
58197;Laerm;43999;51.660;5.616;2023-07-24T11:43:50;49.65;48.29;51.26;;
58197;Laerm;43999;51.660;5.616;2023-07-24T11:46:30;49.67;48.29;51.22;;
58197;Laerm;43999;51.660;5.616;2023-07-24T11:48:59;49.66;48.40;51.33;;
58197;Laerm;43999;51.660;5.616;2023-07-24T11:54:07;49.67;48.42;51.18;;
58197;Laerm;43999;51.660;5.616;2023-07-24T11:56:36;49.68;48.36;51.28;;
58197;Laerm;43999;51.660;5.616;2023-07-24T11:59:14;49.67;48.45;51.55;;
58197;Laerm;43999;51.660;5.616;2023-07-24T12:01:47;49.67;48.40;51.95;;
58197;Laerm;43999;51.660;5.616;2023-07-24T12:04:16;49.68;48.25;51.45;;
58197;Laerm;43999;51.660;5.616;2023-07-24T12:06:44;49.69;48.29;51.17;;
58197;Laerm;43999;51.660;5.616;2023-07-24T12:09:12;49.71;48.49;51.53;;
58197;Laerm;43999;51.660;5.616;2023-07-24T12:11:42;49.70;48.39;51.65;;
58197;Laerm;43999;51.660;5.616;2023-07-24T12:14:15;49.69;48.29;51.21;;
58197;Laerm;43999;51.660;5.616;2023-07-24T12:16:43;49.69;48.40;51.31;;
58197;Laerm;43999;51.660;5.616;2023-07-24T12:19:11;49.71;48.34;51.21;;
58197;Laerm;43999;51.660;5.616;2023-07-24T12:21:38;49.69;48.37;51.70;;
58197;Laerm;43999;51.660;5.616;2023-07-24T12:24:05;49.71;48.43;51.28;;
58197;Laerm;43999;51.660;5.616;2023-07-24T12:26:33;49.70;48.28;51.19;;
58197;Laerm;43999;51.660;5.616;2023-07-24T12:29:00;49.71;48.36;51.39;;
58197;Laerm;43999;51.660;5.616;2023-07-24T12:31:28;49.69;48.46;51.33;;
58197;Laerm;43999;51.660;5.616;2023-07-24T12:33:56;49.71;48.23;51.21;;
58197;Laerm;43999;51.660;5.616;2023-07-24T12:36:24;49.72;48.52;51.67;;
58197;Laerm;43999;51.660;5.616;2023-07-24T12:38:52;49.71;48.45;51.28;;
58197;Laerm;43999;51.660;5.616;2023-07-24T12:41:19;49.69;48.39;51.55;;
58197;Laerm;43999;51.660;5.616;2023-07-24T12:43:47;49.69;48.40;51.26;;
58197;Laerm;43999;51.660;5.616;2023-07-24T12:46:14;49.70;48.15;51.40;;
58197;Laerm;43999;51.660;5.616;2023-07-24T12:48:42;49.69;48.39;51.30;;
58197;Laerm;43999;51.660;5.616;2023-07-24T12:51:17;49.68;48.08;51.47;;
58197;Laerm;43999;51.660;5.616;2023-07-24T12:53:44;49.68;48.45;51.32;;
58197;Laerm;43999;51.660;5.616;2023-07-24T12:56:32;49.69;48.46;51.56;;
58197;Laerm;43999;51.660;5.616;2023-07-24T12:59:01;49.68;48.23;51.44;;
58197;Laerm;43999;51.660;5.616;2023-07-24T13:01:30;49.68;48.39;51.57;;
58197;Laerm;43999;51.660;5.616;2023-07-24T13:03:58;49.68;48.37;51.30;;
58197;Laerm;43999;51.660;5.616;2023-07-24T13:06:26;49.67;48.20;51.13;;
58197;Laerm;43999;51.660;5.616;2023-07-24T13:08:55;49.67;48.31;51.30;;
58197;Laerm;43999;51.660;5.616;2023-07-24T13:11:22;49.66;48.55;51.39;;
58197;Laerm;43999;51.660;5.616;2023-07-24T13:13:49;49.64;48.29;51.25;;
58197;Laerm;43999;51.660;5.616;2023-07-24T13:16:17;49.65;48.42;51.26;;
58197;Laerm;43999;51.660;5.616;2023-07-24T13:18:45;49.64;48.39;51.17;;
58197;Laerm;43999;51.660;5.616;2023-07-24T13:21:12;49.63;48.43;51.59;;
58197;Laerm;43999;51.660;5.616;2023-07-24T13:23:42;49.63;48.31;51.26;;
58197;Laerm;43999;51.660;5.616;2023-07-24T13:26:09;49.65;48.36;51.28;;
58197;Laerm;43999;51.660;5.616;2023-07-24T13:28:38;49.66;48.37;51.12;;
58197;Laerm;43999;51.660;5.616;2023-07-24T13:31:18;49.65;48.26;51.38;;
58197;Laerm;43999;51.660;5.616;2023-07-24T13:33:46;49.67;48.31;51.22;;
58197;Laerm;43999;51.660;5.616;2023-07-24T13:36:14;49.65;48.43;51.27;;
58197;Laerm;43999;51.660;5.616;2023-07-24T13:38:42;49.65;48.20;51.59;;
58197;Laerm;43999;51.660;5.616;2023-07-24T13:41:09;49.62;48.31;51.27;;
58197;Laerm;43999;51.660;5.616;2023-07-24T13:43:37;49.61;48.42;51.67;;
58197;Laerm;43999;51.660;5.616;2023-07-24T13:46:04;49.58;48.23;51.10;;
58197;Laerm;43999;51.660;5.616;2023-07-24T13:48:35;49.59;48.25;51.40;;
58197;Laerm;43999;51.660;5.616;2023-07-24T13:51:02;49.60;48.31;51.27;;
58197;Laerm;43999;51.660;5.616;2023-07-24T13:53:30;49.57;48.12;51.42;;
58197;Laerm;43999;51.660;5.616;2023-07-24T13:55:57;49.59;48.34;51.15;;
58197;Laerm;43999;51.660;5.616;2023-07-24T13:58:25;49.58;48.31;51.25;;
58197;Laerm;43999;51.660;5.616;2023-07-24T14:00:52;49.57;48.31;51.03;;